createdAt,value
2023-02-25T00:00:34.519Z,1.90
2023-02-25T00:03:01.783Z,1.80
2023-02-25T00:05:31.843Z,1.90
2023-02-25T00:07:59.323Z,1.58
2023-02-25T00:10:26.068Z,2.20
2023-02-25T00:12:52.808Z,1.73
2023-02-25T00:15:19.614Z,1.60
2023-02-25T00:17:46.387Z,1.65
2023-02-25T00:20:13.743Z,1.58
2023-02-25T00:22:41.047Z,1.80
2023-02-25T00:25:09.205Z,1.60
2023-02-25T00:27:36.617Z,1.83
2023-02-25T00:30:05.597Z,1.80
2023-02-25T00:32:32.687Z,1.70
2023-02-25T00:34:59.652Z,1.77
2023-02-25T00:37:26.375Z,1.85
2023-02-25T00:39:53.263Z,1.92
2023-02-25T00:42:20.287Z,1.85
2023-02-25T00:44:49.225Z,1.63
2023-02-25T00:47:19.417Z,1.70
2023-02-25T00:49:47.824Z,1.73
2023-02-25T00:52:16.029Z,1.70
2023-02-25T00:54:42.889Z,1.65
2023-02-25T00:57:10.038Z,1.80
2023-02-25T00:59:36.704Z,1.48
2023-02-25T01:02:03.648Z,1.65
2023-02-25T01:04:30.494Z,1.98
2023-02-25T01:06:57.329Z,1.52
2023-02-25T01:09:24.488Z,1.60
2023-02-25T01:11:51.650Z,1.67
2023-02-25T01:14:21.599Z,2.03
2023-02-25T01:16:49.796Z,1.67
2023-02-25T01:19:23.080Z,1.70
2023-02-25T01:21:52.427Z,1.67
2023-02-25T01:26:49.660Z,1.55
2023-02-25T01:29:21.433Z,1.30
2023-02-25T01:31:51.830Z,1.70
2023-02-25T01:34:18.733Z,1.80
2023-02-25T01:36:46.226Z,1.80
2023-02-25T01:39:14.939Z,1.70
2023-02-25T01:41:42.011Z,1.40
2023-02-25T01:44:16.423Z,1.90
2023-02-25T01:46:47.245Z,1.73
2023-02-25T01:49:32.345Z,1.48
2023-02-25T01:52:09.902Z,1.42
2023-02-25T01:54:37.952Z,1.80
2023-02-25T01:57:10.077Z,1.40
2023-02-25T01:59:39.007Z,1.50
2023-02-25T02:02:09.261Z,1.20
2023-02-25T02:04:37.956Z,1.40
2023-02-25T02:07:04.780Z,1.50
2023-02-25T02:09:32.109Z,1.55
2023-02-25T02:12:01.461Z,1.30
2023-02-25T02:14:33.077Z,1.40
2023-02-25T02:16:59.764Z,1.40
2023-02-25T02:19:32.124Z,1.48
2023-02-25T02:22:26.282Z,1.63
2023-02-25T02:24:52.845Z,1.58
2023-02-25T02:27:50.330Z,1.30
2023-02-25T02:30:35.401Z,1.50
2023-02-25T02:33:22.401Z,1.50
2023-02-25T02:35:59.567Z,1.30
2023-02-25T02:38:34.411Z,1.50
2023-02-25T02:41:15.293Z,1.50
2023-02-25T02:43:47.985Z,1.00
2023-02-25T02:46:35.196Z,1.40
2023-02-25T02:49:16.449Z,1.20
2023-02-25T02:51:53.582Z,1.33
2023-02-25T02:54:23.200Z,1.20
2023-02-25T02:56:55.219Z,1.48
2023-02-25T02:59:30.130Z,1.40
2023-02-25T03:02:04.468Z,1.40
2023-02-25T03:04:36.413Z,1.50
2023-02-25T03:07:08.688Z,1.38
2023-02-25T03:09:58.095Z,1.38
2023-02-25T03:12:26.051Z,1.30
2023-02-25T03:14:53.743Z,1.58
2023-02-25T03:17:31.477Z,1.30
2023-02-25T03:20:08.154Z,1.20
2023-02-25T03:22:41.371Z,1.40
2023-02-25T03:25:10.867Z,1.42
2023-02-25T03:27:42.246Z,1.27
2023-02-25T03:30:25.796Z,1.30
2023-02-25T03:32:57.143Z,1.35
2023-02-25T03:35:27.016Z,1.50
2023-02-25T03:38:00.551Z,1.23
2023-02-25T03:40:28.061Z,1.10
2023-02-25T03:43:01.583Z,1.33
2023-02-25T03:45:32.811Z,1.08
2023-02-25T03:48:00.170Z,1.20
2023-02-25T03:50:33.467Z,1.00
2023-02-25T03:53:04.228Z,1.40
2023-02-25T03:55:51.656Z,1.13
2023-02-25T03:58:19.323Z,1.30
2023-02-25T04:00:49.605Z,1.13
2023-02-25T04:03:16.706Z,1.30
2023-02-25T04:05:46.194Z,1.30
2023-02-25T04:08:16.248Z,1.30
2023-02-25T04:10:45.616Z,1.15
2023-02-25T04:13:15.325Z,1.30
2023-02-25T04:15:43.073Z,1.20
2023-02-25T04:18:09.851Z,1.70
2023-02-25T04:20:36.588Z,1.20
2023-02-25T04:23:03.231Z,1.20
2023-02-25T04:25:29.839Z,1.33
2023-02-25T04:27:56.453Z,1.30
2023-02-25T04:30:23.374Z,1.02
2023-02-25T04:32:50.297Z,1.10
2023-02-25T04:35:17.500Z,1.35
2023-02-25T04:37:44.415Z,1.20
2023-02-25T04:40:17.225Z,1.60
2023-02-25T04:42:44.276Z,1.38
2023-02-25T04:45:12.833Z,1.40
2023-02-25T04:47:39.713Z,1.50
2023-02-25T04:50:10.219Z,1.42
2023-02-25T04:52:37.257Z,1.38
2023-02-25T04:55:05.104Z,1.38
2023-02-25T04:57:31.805Z,1.20
2023-02-25T04:59:58.402Z,1.40
2023-02-25T05:02:25.220Z,1.48
2023-02-25T05:04:52.031Z,1.48
2023-02-25T05:07:18.799Z,1.40
2023-02-25T05:09:45.535Z,1.10
2023-02-25T05:12:12.289Z,1.35
2023-02-25T05:14:38.962Z,1.40
2023-02-25T05:17:05.831Z,1.30
2023-02-25T05:19:32.698Z,1.20
2023-02-25T05:21:59.558Z,1.33
2023-02-25T05:24:26.605Z,1.38
2023-02-25T05:26:53.448Z,1.17
2023-02-25T05:29:20.766Z,1.40
2023-02-25T05:31:50.717Z,1.33
2023-02-25T05:34:18.172Z,1.40
2023-02-25T05:36:46.775Z,1.40
2023-02-25T05:39:14.573Z,1.30
2023-02-25T05:41:41.535Z,1.30
2023-02-25T05:44:10.463Z,1.30
2023-02-25T05:46:37.257Z,1.40
2023-02-25T05:49:04.043Z,1.25
2023-02-25T05:51:30.787Z,1.55
2023-02-25T05:53:57.490Z,1.40
2023-02-25T05:56:26.026Z,1.00
2023-02-25T05:58:52.950Z,1.60
2023-02-25T06:01:23.291Z,1.20
2023-02-25T06:03:58.464Z,1.50
2023-02-25T06:06:27.625Z,1.10
2023-02-25T06:08:54.324Z,1.17
2023-02-25T06:11:30.339Z,1.02
2023-02-25T06:13:58.258Z,1.38
2023-02-25T06:16:30.138Z,1.08
2023-02-25T06:18:56.938Z,1.30
2023-02-25T06:21:23.725Z,1.20
2023-02-25T06:23:50.631Z,1.20
2023-02-25T06:26:18.013Z,1.30
2023-02-25T06:28:45.435Z,1.38
2023-02-25T06:31:15.437Z,1.20
2023-02-25T06:33:42.355Z,1.17
2023-02-25T06:36:09.608Z,1.38
2023-02-25T06:38:36.830Z,1.20
2023-02-25T06:41:14.174Z,1.20
2023-02-25T06:43:41.535Z,1.70
2023-02-25T06:46:11.064Z,1.10
2023-02-25T06:51:09.442Z,1.30
2023-02-25T06:53:40.931Z,1.60
2023-02-25T06:56:09.125Z,1.30
2023-02-25T06:58:37.440Z,1.27
2023-02-25T07:01:09.173Z,1.20
2023-02-25T07:03:36.169Z,1.13
2023-02-25T07:06:03.050Z,1.10
2023-02-25T07:08:31.028Z,0.77
2023-02-25T07:11:14.841Z,1.17
2023-02-25T07:13:43.356Z,1.10
2023-02-25T07:16:11.886Z,0.88
2023-02-25T07:18:39.212Z,1.00
2023-02-25T07:21:06.514Z,1.13
2023-02-25T07:23:34.002Z,1.20
2023-02-25T07:26:04.905Z,1.08
2023-02-25T07:28:32.264Z,1.20
2023-02-25T07:31:11.353Z,1.20
2023-02-25T07:33:38.418Z,1.30
2023-02-25T07:36:05.403Z,1.13
2023-02-25T07:38:32.243Z,1.05
2023-02-25T07:41:04.668Z,1.30
2023-02-25T07:43:31.449Z,0.95
2023-02-25T07:45:58.492Z,1.13
2023-02-25T07:48:25.348Z,0.88
2023-02-25T07:50:52.115Z,0.82
2023-02-25T07:53:22.013Z,1.10
2023-02-25T07:55:49.711Z,0.82
2023-02-25T07:58:16.700Z,0.90
2023-02-25T08:00:46.093Z,1.10
2023-02-25T08:03:12.920Z,1.00
2023-02-25T08:05:39.763Z,1.30
2023-02-25T08:08:06.644Z,0.90
2023-02-25T08:10:33.565Z,1.10
2023-02-25T08:13:00.411Z,1.00
2023-02-25T08:15:27.000Z,1.05
2023-02-25T08:17:56.718Z,0.80
2023-02-25T08:20:24.245Z,0.90
2023-02-25T08:22:50.993Z,1.10
2023-02-25T08:25:17.890Z,1.08
2023-02-25T08:27:44.695Z,1.20
2023-02-25T08:30:12.089Z,0.95
2023-02-25T08:32:39.363Z,1.02
2023-02-25T08:35:06.408Z,1.13
2023-02-25T08:37:33.615Z,0.85
2023-02-25T08:40:00.190Z,0.90
2023-02-25T08:42:29.155Z,1.05
2023-02-25T08:44:55.981Z,1.27
2023-02-25T08:47:22.873Z,0.90
2023-02-25T08:49:49.800Z,1.77
2023-02-25T08:52:16.744Z,0.93
2023-02-25T08:54:43.567Z,0.98
2023-02-25T08:57:10.425Z,1.17
2023-02-25T08:59:37.875Z,1.20
2023-02-25T09:02:15.129Z,0.82
2023-02-25T09:04:41.851Z,1.23
2023-02-25T09:07:08.830Z,0.90
2023-02-25T09:09:35.745Z,1.05
2023-02-25T09:12:05.258Z,0.80
2023-02-25T09:16:58.702Z,1.25
2023-02-25T09:19:25.406Z,1.83
2023-02-25T09:21:52.212Z,1.08
2023-02-25T09:24:19.252Z,1.17
2023-02-25T09:26:47.005Z,1.30
2023-02-25T09:29:14.166Z,1.20
2023-02-25T09:31:41.317Z,1.23
2023-02-25T09:34:11.139Z,1.00
2023-02-25T09:36:38.199Z,1.02
2023-02-25T09:39:10.207Z,1.10
2023-02-25T09:41:49.101Z,1.17
2023-02-25T09:44:20.408Z,0.93
2023-02-25T09:46:56.304Z,1.20
2023-02-25T09:49:28.947Z,1.10
2023-02-25T09:52:19.655Z,0.85
2023-02-25T09:55:08.404Z,0.98
2023-02-25T09:57:41.573Z,1.50
2023-02-25T10:00:18.666Z,1.08
2023-02-25T10:02:54.602Z,1.10
2023-02-25T10:05:21.733Z,1.20
2023-02-25T10:08:15.709Z,1.17
2023-02-25T10:10:58.874Z,1.00
2023-02-25T10:13:44.696Z,1.17
2023-02-25T10:16:26.459Z,1.40
2023-02-25T10:19:06.188Z,1.05
2023-02-25T10:21:53.436Z,1.30
2023-02-25T10:24:34.750Z,1.27
2023-02-25T10:27:28.117Z,1.10
2023-02-25T10:30:53.785Z,1.17
2023-02-25T10:33:24.534Z,1.17
2023-02-25T10:36:08.427Z,1.35
2023-02-25T10:38:48.737Z,1.30
2023-02-25T10:41:16.149Z,1.25
2023-02-25T10:43:43.857Z,1.30
2023-02-25T10:46:16.954Z,1.42
2023-02-25T10:48:52.236Z,1.38
2023-02-25T10:51:18.949Z,1.50
2023-02-25T10:53:58.199Z,1.73
2023-02-25T10:56:27.066Z,1.40
2023-02-25T10:59:06.366Z,1.45
2023-02-25T11:01:42.357Z,1.67
2023-02-25T11:04:14.673Z,1.85
2023-02-25T11:06:43.843Z,1.50
2023-02-25T11:09:19.359Z,1.75
2023-02-25T11:12:01.166Z,1.35
2023-02-25T11:14:31.927Z,1.55
2023-02-25T11:17:07.309Z,1.40
2023-02-25T11:19:45.449Z,1.98
2023-02-25T11:22:28.414Z,1.50
2023-02-25T11:25:00.958Z,1.70
2023-02-25T11:27:39.940Z,2.05
2023-02-25T11:30:12.134Z,1.52
2023-02-25T11:32:56.321Z,1.90
2023-02-25T11:35:35.620Z,1.80
2023-02-25T11:40:45.946Z,1.80
2023-02-25T11:43:24.435Z,1.88
2023-02-25T11:46:02.970Z,1.70
2023-02-25T11:48:53.164Z,1.93
2023-02-25T11:51:26.325Z,1.70
2023-02-25T11:53:55.668Z,1.58
2023-02-25T11:56:36.645Z,1.75
2023-02-25T11:59:18.166Z,1.50
2023-02-25T12:02:19.026Z,1.50
2023-02-25T12:05:17.025Z,1.52
2023-02-25T12:08:19.006Z,1.75
2023-02-25T12:10:55.786Z,1.60
2023-02-25T12:13:54.861Z,1.75
2023-02-25T12:16:53.904Z,1.77
2023-02-25T12:19:57.574Z,1.40
2023-02-25T12:23:21.838Z,1.60
2023-02-25T12:25:51.577Z,1.40
2023-02-25T12:28:51.167Z,1.45
2023-02-25T12:31:27.014Z,1.50
2023-02-25T12:37:36.819Z,1.60
2023-02-25T12:40:25.006Z,1.38
2023-02-25T12:46:15.197Z,1.40
2023-02-25T12:49:20.745Z,1.30
2023-02-25T12:55:20.104Z,1.30
2023-02-25T12:57:54.204Z,1.25
2023-02-25T13:00:36.016Z,1.25
2023-02-25T13:03:21.927Z,1.40
2023-02-25T13:06:07.768Z,1.20
2023-02-25T13:09:08.971Z,1.23
2023-02-25T13:12:10.938Z,1.20
2023-02-25T13:15:01.603Z,1.48
2023-02-25T13:18:04.292Z,1.25
2023-02-25T13:20:31.312Z,1.15
2023-02-25T13:23:47.469Z,1.30
2023-02-25T13:29:05.248Z,1.20
2023-02-25T13:31:49.186Z,1.10
2023-02-25T13:34:22.336Z,1.02
2023-02-25T13:37:18.815Z,1.20
2023-02-25T13:39:57.689Z,0.90
2023-02-25T13:42:55.849Z,1.23
2023-02-25T13:45:46.036Z,1.40
2023-02-25T13:48:24.644Z,1.00
2023-02-25T13:51:29.265Z,1.40
2023-02-25T13:54:18.069Z,1.30
2023-02-25T13:57:00.119Z,1.20
2023-02-25T14:00:04.827Z,1.00
2023-02-25T14:02:59.879Z,1.05
2023-02-25T14:05:36.535Z,1.00
2023-02-25T14:08:41.057Z,1.10
2023-02-25T14:11:26.879Z,1.15
2023-02-25T14:14:26.991Z,1.10
2023-02-25T14:17:26.114Z,1.00
2023-02-25T14:20:24.064Z,0.88
2023-02-25T14:22:50.806Z,1.05
2023-02-25T14:25:38.766Z,1.33
2023-02-25T14:28:13.479Z,1.00
2023-02-25T14:30:52.712Z,1.30
2023-02-25T14:33:50.702Z,1.00
2023-02-25T14:36:28.811Z,1.20
2023-02-25T14:39:33.101Z,1.15
2023-02-25T14:42:13.926Z,1.02
2023-02-25T14:45:02.136Z,1.50
2023-02-25T14:48:00.810Z,1.00
2023-02-25T14:50:50.041Z,1.00
2023-02-25T14:53:43.278Z,1.10
2023-02-25T14:56:26.032Z,1.35
2023-02-25T14:58:55.300Z,1.15
2023-02-25T15:01:45.188Z,0.85
2023-02-25T15:04:30.423Z,1.20
2023-02-25T15:07:05.581Z,1.27
2023-02-25T15:09:41.099Z,1.30
2023-02-25T15:12:29.787Z,1.10
2023-02-25T15:15:05.111Z,1.00
2023-02-25T15:17:59.689Z,1.15
2023-02-25T15:20:39.225Z,1.20
2023-02-25T15:23:14.297Z,1.27
2023-02-25T15:25:50.614Z,1.67
2023-02-25T15:28:29.513Z,1.20
2023-02-25T15:30:59.119Z,1.20
2023-02-25T15:33:35.139Z,1.20
2023-02-25T15:36:13.995Z,1.35
2023-02-25T15:38:52.167Z,1.08
2023-02-25T15:41:27.829Z,1.17
2023-02-25T15:44:13.520Z,1.30
2023-02-25T15:46:41.724Z,1.50
2023-02-25T15:49:10.332Z,1.50
2023-02-25T15:51:59.096Z,1.40
2023-02-25T15:54:28.744Z,1.77
2023-02-25T15:56:58.313Z,1.50
2023-02-25T15:59:47.934Z,1.50
2023-02-25T16:02:29.860Z,1.17
2023-02-25T16:05:18.670Z,1.50
2023-02-25T16:07:49.382Z,1.27
2023-02-25T16:10:18.863Z,1.80
2023-02-25T16:12:53.034Z,1.25
2023-02-25T16:15:39.816Z,1.20
2023-02-25T16:18:19.304Z,1.50
2023-02-25T16:20:50.208Z,1.30
2023-02-25T16:23:17.987Z,1.30
2023-02-25T16:26:34.407Z,1.20
2023-02-25T16:29:01.274Z,1.20
2023-02-25T16:31:54.665Z,1.00
2023-02-25T16:34:30.612Z,1.13
2023-02-25T16:37:13.325Z,1.98
2023-02-25T16:39:40.696Z,1.20
2023-02-25T16:42:16.512Z,1.35
2023-02-25T16:44:47.111Z,1.40
2023-02-25T16:47:30.552Z,1.20
2023-02-25T16:49:59.754Z,1.30
2023-02-25T16:52:37.671Z,1.27
2023-02-25T16:55:12.414Z,1.70
2023-02-25T16:57:39.599Z,1.23
2023-02-25T17:00:15.531Z,1.20
2023-02-25T17:02:45.967Z,1.20
2023-02-25T17:05:24.281Z,1.20
2023-02-25T17:07:56.531Z,0.95
2023-02-25T17:10:29.898Z,1.00
2023-02-25T17:12:57.329Z,1.33
2023-02-25T17:15:27.460Z,1.13
2023-02-25T17:18:20.998Z,1.30
2023-02-25T17:20:48.205Z,1.20
2023-02-25T17:23:17.383Z,1.20
2023-02-25T17:25:48.588Z,1.50
2023-02-25T17:28:19.417Z,1.10
2023-02-25T17:30:47.310Z,1.20
2023-02-25T17:33:26.238Z,1.40
2023-02-25T17:36:16.584Z,1.20
2023-02-25T17:38:44.595Z,1.30
2023-02-25T17:41:17.130Z,1.20
2023-02-25T17:43:44.092Z,1.10
2023-02-25T17:46:31.529Z,1.60
2023-02-25T17:49:02.596Z,1.27
2023-02-25T17:51:33.801Z,1.40
2023-02-25T17:54:13.822Z,1.30
2023-02-25T17:56:40.811Z,1.20
2023-02-25T17:59:27.561Z,1.30
2023-02-25T18:02:00.834Z,1.20
2023-02-25T18:04:36.046Z,1.35
2023-02-25T18:07:20.921Z,1.20
2023-02-25T18:09:49.109Z,1.45
2023-02-25T18:12:32.039Z,1.67
2023-02-25T18:15:01.304Z,1.00
2023-02-25T18:17:31.052Z,1.45
2023-02-25T18:20:00.931Z,1.27
2023-02-25T18:22:48.395Z,1.42
2023-02-25T18:25:45.716Z,1.40
2023-02-25T18:28:22.532Z,1.48
2023-02-25T18:30:50.825Z,1.35
2023-02-25T18:33:18.123Z,1.13
2023-02-25T18:35:47.180Z,1.35
2023-02-25T18:38:19.141Z,1.40
2023-02-25T18:40:46.252Z,1.50
2023-02-25T18:43:17.730Z,1.40
2023-02-25T18:45:44.867Z,1.48
2023-02-25T18:48:12.500Z,1.40
2023-02-25T18:50:42.197Z,1.30
2023-02-25T18:53:15.462Z,1.35
2023-02-25T18:55:42.229Z,1.20
2023-02-25T18:58:16.701Z,1.35
2023-02-25T19:00:46.129Z,1.40
2023-02-25T19:05:42.754Z,1.40
2023-02-25T19:08:14.258Z,1.20
2023-02-25T19:10:43.607Z,1.20
2023-02-25T19:15:57.276Z,1.40
2023-02-25T19:18:24.062Z,1.50
2023-02-25T19:20:50.856Z,1.30
2023-02-25T19:23:18.747Z,1.48
2023-02-25T19:25:47.763Z,1.30
2023-02-25T19:28:14.423Z,1.42
2023-02-25T19:30:44.699Z,1.63
2023-02-25T19:33:12.648Z,1.40
2023-02-25T19:35:42.282Z,1.30
2023-02-25T19:38:13.397Z,1.50
2023-02-25T19:40:40.944Z,1.55
2023-02-25T19:43:07.925Z,1.30
2023-02-25T19:45:34.788Z,1.40
2023-02-25T19:48:02.421Z,1.30
2023-02-25T19:50:32.130Z,1.50
2023-02-25T19:52:59.062Z,1.20
2023-02-25T19:55:25.834Z,1.63
2023-02-25T19:57:52.956Z,1.30
2023-02-25T20:00:22.693Z,1.30
2023-02-25T20:02:51.299Z,1.40
2023-02-25T20:05:18.300Z,1.53
2023-02-25T20:07:45.054Z,1.45
2023-02-25T20:10:13.700Z,1.40
2023-02-25T20:12:42.183Z,1.40
2023-02-25T20:15:10.188Z,1.47
2023-02-25T20:17:38.393Z,1.65
2023-02-25T20:20:23.848Z,1.33
2023-02-25T20:22:50.888Z,1.55
2023-02-25T20:25:17.718Z,1.70
2023-02-25T20:27:44.572Z,1.35
2023-02-25T20:30:15.500Z,1.65
2023-02-25T20:32:46.175Z,1.35
2023-02-25T20:35:20.650Z,1.38
2023-02-25T20:38:28.183Z,1.40
2023-02-25T20:40:55.097Z,1.50
2023-02-25T20:43:21.992Z,1.98
2023-02-25T20:45:49.189Z,1.75
2023-02-25T20:48:28.728Z,1.77
2023-02-25T20:50:55.943Z,1.60
2023-02-25T20:53:23.227Z,1.63
2023-02-25T20:55:50.651Z,1.52
2023-02-25T20:58:17.637Z,1.50
2023-02-25T21:00:44.827Z,1.60
2023-02-25T21:03:11.714Z,1.42
2023-02-25T21:05:38.576Z,1.77
2023-02-25T21:08:06.991Z,1.58
2023-02-25T21:10:33.655Z,1.73
2023-02-25T21:13:00.574Z,1.77
2023-02-25T21:15:27.456Z,1.40
2023-02-25T21:17:54.284Z,1.70
2023-02-25T21:20:20.953Z,1.80
2023-02-25T21:22:48.238Z,1.73
2023-02-25T21:25:15.190Z,1.60
2023-02-25T21:27:42.026Z,1.52
2023-02-25T21:30:09.470Z,1.80
2023-02-25T21:32:36.117Z,2.00
2023-02-25T21:35:02.733Z,1.90
2023-02-25T21:37:29.593Z,1.75
2023-02-25T21:39:56.451Z,2.10
2023-02-25T21:42:23.171Z,1.73
2023-02-25T21:44:49.998Z,2.22
2023-02-25T21:47:16.903Z,1.92
2023-02-25T21:49:44.950Z,1.83
2023-02-25T21:52:11.712Z,1.73
2023-02-25T21:54:38.505Z,2.13
2023-02-25T21:57:05.369Z,2.00
2023-02-25T21:59:32.109Z,1.70
2023-02-25T22:01:58.733Z,1.70
2023-02-25T22:04:25.510Z,1.92
2023-02-25T22:06:52.464Z,2.10
2023-02-25T22:09:20.082Z,1.90
2023-02-25T22:11:47.027Z,2.20
2023-02-25T22:14:13.822Z,1.73
2023-02-25T22:16:40.968Z,2.10
2023-02-25T22:19:07.875Z,2.22
2023-02-25T22:21:36.166Z,2.30
2023-02-25T22:24:04.592Z,2.70
2023-02-25T22:26:33.766Z,2.47
2023-02-25T22:29:03.130Z,2.53
2023-02-25T22:33:57.639Z,2.10
2023-02-25T22:36:25.308Z,2.40
2023-02-25T22:38:52.666Z,2.45
2023-02-25T22:41:22.689Z,2.33
2023-02-25T22:43:50.231Z,2.33
2023-02-25T22:46:16.936Z,2.00
2023-02-25T22:48:46.106Z,2.00
2023-02-25T22:51:14.092Z,2.33
2023-02-25T22:53:41.010Z,2.08
2023-02-25T22:56:09.968Z,2.10
2023-02-25T22:58:39.058Z,2.33
2023-02-25T23:01:08.224Z,1.95
2023-02-25T23:03:35.384Z,1.95
2023-02-25T23:06:02.249Z,2.10
2023-02-25T23:08:29.158Z,2.00
2023-02-25T23:10:55.946Z,2.08
2023-02-25T23:13:22.657Z,1.90
2023-02-25T23:15:49.664Z,2.33
2023-02-25T23:18:16.607Z,1.75
2023-02-25T23:20:43.438Z,1.70
2023-02-25T23:23:13.503Z,1.88
2023-02-25T23:25:44.880Z,2.00
2023-02-25T23:28:11.796Z,2.00
2023-02-25T23:30:39.213Z,1.95
2023-02-25T23:33:06.378Z,2.05
2023-02-25T23:35:33.930Z,1.70
2023-02-25T23:38:01.238Z,1.63
2023-02-25T23:40:29.303Z,1.70
2023-02-25T23:42:56.099Z,1.88
2023-02-25T23:45:22.975Z,1.88
2023-02-25T23:47:49.810Z,1.85
2023-02-25T23:50:17.768Z,2.40
2023-02-25T23:52:46.195Z,1.73
2023-02-25T23:55:14.552Z,1.85
2023-02-25T23:57:41.844Z,1.77
